sensor_id;sensor_type;location;lat;lon;timestamp;pressure;altitude;pressure_sealevel;temperature
38114;BMP180;23926;53.222;6.354;2023-03-01T00:01:13;103044.00;;;2.00
38114;BMP180;23926;53.222;6.354;2023-03-01T00:03:38;103051.00;;;2.10
38114;BMP180;23926;53.222;6.354;2023-03-01T00:06:04;103037.00;;;2.10
38114;BMP180;23926;53.222;6.354;2023-03-01T00:08:30;103018.00;;;1.90
38114;BMP180;23926;53.222;6.354;2023-03-01T00:13:31;103018.00;;;1.60
38114;BMP180;23926;53.222;6.354;2023-03-01T00:15:57;103031.00;;;1.50
38114;BMP180;23926;53.222;6.354;2023-03-01T00:18:23;103036.00;;;1.40
38114;BMP180;23926;53.222;6.354;2023-03-01T00:20:53;103009.00;;;1.30
38114;BMP180;23926;53.222;6.354;2023-03-01T00:23:19;103034.00;;;1.30
38114;BMP180;23926;53.222;6.354;2023-03-01T00:25:45;103026.00;;;1.30
38114;BMP180;23926;53.222;6.354;2023-03-01T00:28:10;103031.00;;;1.30
38114;BMP180;23926;53.222;6.354;2023-03-01T00:30:36;102999.00;;;1.20
38114;BMP180;23926;53.222;6.354;2023-03-01T00:33:01;103017.00;;;1.10
38114;BMP180;23926;53.222;6.354;2023-03-01T00:35:27;103033.00;;;1.10
38114;BMP180;23926;53.222;6.354;2023-03-01T00:37:52;103030.00;;;1.30
38114;BMP180;23926;53.222;6.354;2023-03-01T00:40:26;103045.00;;;1.40
38114;BMP180;23926;53.222;6.354;2023-03-01T00:42:52;103029.00;;;1.30
38114;BMP180;23926;53.222;6.354;2023-03-01T00:45:18;103029.00;;;1.30
38114;BMP180;23926;53.222;6.354;2023-03-01T00:47:43;103011.00;;;1.40
38114;BMP180;23926;53.222;6.354;2023-03-01T00:50:10;103013.00;;;1.40
38114;BMP180;23926;53.222;6.354;2023-03-01T00:52:35;103033.00;;;1.50
38114;BMP180;23926;53.222;6.354;2023-03-01T00:55:01;103029.00;;;1.40
38114;BMP180;23926;53.222;6.354;2023-03-01T00:57:26;103023.00;;;1.40
38114;BMP180;23926;53.222;6.354;2023-03-01T00:59:52;103013.00;;;1.40
38114;BMP180;23926;53.222;6.354;2023-03-01T01:02:18;103021.00;;;1.50
38114;BMP180;23926;53.222;6.354;2023-03-01T01:04:44;103024.00;;;1.60
38114;BMP180;23926;53.222;6.354;2023-03-01T01:07:09;102998.00;;;1.60
38114;BMP180;23926;53.222;6.354;2023-03-01T01:09:35;103021.00;;;1.60
38114;BMP180;23926;53.222;6.354;2023-03-01T01:12:00;103032.00;;;1.60
38114;BMP180;23926;53.222;6.354;2023-03-01T01:14:26;103021.00;;;1.50
38114;BMP180;23926;53.222;6.354;2023-03-01T01:16:52;103025.00;;;1.20
38114;BMP180;23926;53.222;6.354;2023-03-01T01:19:18;103016.00;;;1.10
38114;BMP180;23926;53.222;6.354;2023-03-01T01:21:43;103009.00;;;1.00
38114;BMP180;23926;53.222;6.354;2023-03-01T01:24:10;102997.00;;;1.10
38114;BMP180;23926;53.222;6.354;2023-03-01T01:26:36;103010.00;;;0.90
38114;BMP180;23926;53.222;6.354;2023-03-01T01:29:03;102991.00;;;1.00
38114;BMP180;23926;53.222;6.354;2023-03-01T01:31:30;103001.00;;;0.90
38114;BMP180;23926;53.222;6.354;2023-03-01T01:33:56;102992.00;;;0.90
38114;BMP180;23926;53.222;6.354;2023-03-01T01:36:22;103009.00;;;0.90
38114;BMP180;23926;53.222;6.354;2023-03-01T01:38:48;102988.00;;;0.90
38114;BMP180;23926;53.222;6.354;2023-03-01T01:41:14;102986.00;;;0.90
38114;BMP180;23926;53.222;6.354;2023-03-01T01:43:41;102996.00;;;1.00
38114;BMP180;23926;53.222;6.354;2023-03-01T01:46:35;102987.00;;;1.10
38114;BMP180;23926;53.222;6.354;2023-03-01T01:49:15;102946.00;;;1.20
38114;BMP180;23926;53.222;6.354;2023-03-01T01:51:44;102955.00;;;1.20
38114;BMP180;23926;53.222;6.354;2023-03-01T01:54:19;102965.00;;;1.20
38114;BMP180;23926;53.222;6.354;2023-03-01T01:56:55;102964.00;;;1.00
38114;BMP180;23926;53.222;6.354;2023-03-01T01:59:23;102954.00;;;1.00
38114;BMP180;23926;53.222;6.354;2023-03-01T02:01:51;102967.00;;;0.90
38114;BMP180;23926;53.222;6.354;2023-03-01T02:04:17;102971.00;;;0.80
38114;BMP180;23926;53.222;6.354;2023-03-01T02:06:49;102955.00;;;0.70
38114;BMP180;23926;53.222;6.354;2023-03-01T02:09:19;102970.00;;;0.70
38114;BMP180;23926;53.222;6.354;2023-03-01T02:11:47;102945.00;;;0.70
38114;BMP180;23926;53.222;6.354;2023-03-01T02:14:14;102956.00;;;0.90
38114;BMP180;23926;53.222;6.354;2023-03-01T02:16:40;102946.00;;;0.80
38114;BMP180;23926;53.222;6.354;2023-03-01T02:19:07;102957.00;;;0.80
38114;BMP180;23926;53.222;6.354;2023-03-01T02:21:58;102937.00;;;0.90
38114;BMP180;23926;53.222;6.354;2023-03-01T02:26:56;102920.00;;;0.70
38114;BMP180;23926;53.222;6.354;2023-03-01T02:29:23;102918.00;;;0.70
38114;BMP180;23926;53.222;6.354;2023-03-01T02:31:51;102919.00;;;0.60
38114;BMP180;23926;53.222;6.354;2023-03-01T02:34:22;102917.00;;;0.60
38114;BMP180;23926;53.222;6.354;2023-03-01T02:36:57;102920.00;;;0.70
38114;BMP180;23926;53.222;6.354;2023-03-01T02:39:39;102916.00;;;0.60
38114;BMP180;23926;53.222;6.354;2023-03-01T02:42:10;102903.00;;;0.60
38114;BMP180;23926;53.222;6.354;2023-03-01T02:44:36;102903.00;;;0.40
38114;BMP180;23926;53.222;6.354;2023-03-01T02:47:02;102905.00;;;0.30
38114;BMP180;23926;53.222;6.354;2023-03-01T02:49:32;102898.00;;;0.40
38114;BMP180;23926;53.222;6.354;2023-03-01T02:57:03;102904.00;;;0.20
38114;BMP180;23926;53.222;6.354;2023-03-01T02:59:36;102883.00;;;0.20
38114;BMP180;23926;53.222;6.354;2023-03-01T03:02:05;102905.00;;;0.10
38114;BMP180;23926;53.222;6.354;2023-03-01T03:04:31;102903.00;;;0.00
38114;BMP180;23926;53.222;6.354;2023-03-01T03:06:57;102872.00;;;-0.10
38114;BMP180;23926;53.222;6.354;2023-03-01T03:09:22;102868.00;;;-0.20
38114;BMP180;23926;53.222;6.354;2023-03-01T03:11:48;102868.00;;;-0.10
38114;BMP180;23926;53.222;6.354;2023-03-01T03:14:14;102863.00;;;-0.10
38114;BMP180;23926;53.222;6.354;2023-03-01T03:16:50;102887.00;;;-0.10
38114;BMP180;23926;53.222;6.354;2023-03-01T03:19:17;102871.00;;;-0.20
38114;BMP180;23926;53.222;6.354;2023-03-01T03:21:44;102878.00;;;-0.20
38114;BMP180;23926;53.222;6.354;2023-03-01T03:24:09;102887.00;;;-0.40
38114;BMP180;23926;53.222;6.354;2023-03-01T03:26:35;102876.00;;;-0.40
38114;BMP180;23926;53.222;6.354;2023-03-01T03:29:00;102868.00;;;-0.30
38114;BMP180;23926;53.222;6.354;2023-03-01T03:31:27;102864.00;;;-0.30
38114;BMP180;23926;53.222;6.354;2023-03-01T03:33:52;102872.00;;;-0.40
38114;BMP180;23926;53.222;6.354;2023-03-01T03:36:20;102890.00;;;-0.40
38114;BMP180;23926;53.222;6.354;2023-03-01T03:38:46;102895.00;;;-0.30
38114;BMP180;23926;53.222;6.354;2023-03-01T03:41:12;102861.00;;;-0.40
38114;BMP180;23926;53.222;6.354;2023-03-01T03:43:39;102902.00;;;-0.40
38114;BMP180;23926;53.222;6.354;2023-03-01T03:46:06;102895.00;;;-0.40
38114;BMP180;23926;53.222;6.354;2023-03-01T03:48:37;102897.00;;;-0.40
38114;BMP180;23926;53.222;6.354;2023-03-01T03:51:03;102896.00;;;-0.50
38114;BMP180;23926;53.222;6.354;2023-03-01T03:53:31;102911.00;;;-0.30
38114;BMP180;23926;53.222;6.354;2023-03-01T03:55:56;102903.00;;;-0.30
38114;BMP180;23926;53.222;6.354;2023-03-01T03:58:24;102888.00;;;-0.50
38114;BMP180;23926;53.222;6.354;2023-03-01T04:00:53;102889.00;;;-0.50
38114;BMP180;23926;53.222;6.354;2023-03-01T04:03:20;102878.00;;;-0.50
38114;BMP180;23926;53.222;6.354;2023-03-01T04:05:47;102873.00;;;-0.40
38114;BMP180;23926;53.222;6.354;2023-03-01T04:08:12;102882.00;;;-0.30
38114;BMP180;23926;53.222;6.354;2023-03-01T04:10:44;102876.00;;;-0.40
38114;BMP180;23926;53.222;6.354;2023-03-01T04:13:12;102866.00;;;-0.50
38114;BMP180;23926;53.222;6.354;2023-03-01T04:15:38;102878.00;;;-0.50
38114;BMP180;23926;53.222;6.354;2023-03-01T04:18:05;102877.00;;;-0.40
38114;BMP180;23926;53.222;6.354;2023-03-01T04:20:33;102903.00;;;-0.40
38114;BMP180;23926;53.222;6.354;2023-03-01T04:23:05;102874.00;;;-0.20
38114;BMP180;23926;53.222;6.354;2023-03-01T04:25:58;102895.00;;;-0.10
38114;BMP180;23926;53.222;6.354;2023-03-01T04:28:27;102902.00;;;0.00
38114;BMP180;23926;53.222;6.354;2023-03-01T04:30:54;102886.00;;;0.00
38114;BMP180;23926;53.222;6.354;2023-03-01T04:33:20;102879.00;;;0.20
38114;BMP180;23926;53.222;6.354;2023-03-01T04:35:46;102874.00;;;0.00
38114;BMP180;23926;53.222;6.354;2023-03-01T04:38:15;102864.00;;;0.00
38114;BMP180;23926;53.222;6.354;2023-03-01T04:40:40;102882.00;;;0.00
38114;BMP180;23926;53.222;6.354;2023-03-01T04:43:08;102866.00;;;0.00
38114;BMP180;23926;53.222;6.354;2023-03-01T04:45:34;102856.00;;;0.00
38114;BMP180;23926;53.222;6.354;2023-03-01T04:48:00;102880.00;;;-0.10
38114;BMP180;23926;53.222;6.354;2023-03-01T04:50:25;102853.00;;;0.00
38114;BMP180;23926;53.222;6.354;2023-03-01T04:52:51;102859.00;;;-0.10
38114;BMP180;23926;53.222;6.354;2023-03-01T04:55:17;102854.00;;;-0.10
38114;BMP180;23926;53.222;6.354;2023-03-01T04:57:42;102863.00;;;-0.20
38114;BMP180;23926;53.222;6.354;2023-03-01T05:00:11;102871.00;;;-0.30
38114;BMP180;23926;53.222;6.354;2023-03-01T05:02:58;102853.00;;;-0.40
38114;BMP180;23926;53.222;6.354;2023-03-01T05:05:35;102846.00;;;-0.50
38114;BMP180;23926;53.222;6.354;2023-03-01T05:08:04;102868.00;;;-0.50
38114;BMP180;23926;53.222;6.354;2023-03-01T05:10:31;102839.00;;;-0.60
38114;BMP180;23926;53.222;6.354;2023-03-01T05:12:57;102818.00;;;-0.50
38114;BMP180;23926;53.222;6.354;2023-03-01T05:15:24;102831.00;;;-0.60
38114;BMP180;23926;53.222;6.354;2023-03-01T05:17:51;102829.00;;;-0.50
38114;BMP180;23926;53.222;6.354;2023-03-01T05:20:17;102833.00;;;-0.50
38114;BMP180;23926;53.222;6.354;2023-03-01T05:22:42;102837.00;;;-0.50
38114;BMP180;23926;53.222;6.354;2023-03-01T05:25:08;102815.00;;;-0.30
38114;BMP180;23926;53.222;6.354;2023-03-01T05:27:35;102813.00;;;-0.30
38114;BMP180;23926;53.222;6.354;2023-03-01T05:30:00;102829.00;;;-0.30
38114;BMP180;23926;53.222;6.354;2023-03-01T05:32:42;102799.00;;;-0.40
38114;BMP180;23926;53.222;6.354;2023-03-01T05:35:09;102815.00;;;-0.50
38114;BMP180;23926;53.222;6.354;2023-03-01T05:37:39;102789.00;;;-0.60
38114;BMP180;23926;53.222;6.354;2023-03-01T05:40:05;102791.00;;;-0.60
38114;BMP180;23926;53.222;6.354;2023-03-01T05:42:31;102806.00;;;-0.80
38114;BMP180;23926;53.222;6.354;2023-03-01T05:44:56;102787.00;;;-0.80
38114;BMP180;23926;53.222;6.354;2023-03-01T05:47:21;102798.00;;;-0.90
38114;BMP180;23926;53.222;6.354;2023-03-01T05:49:47;102794.00;;;-0.90
38114;BMP180;23926;53.222;6.354;2023-03-01T05:52:14;102807.00;;;-0.90
38114;BMP180;23926;53.222;6.354;2023-03-01T05:54:40;102782.00;;;-1.00
38114;BMP180;23926;53.222;6.354;2023-03-01T05:57:05;102791.00;;;-1.00
38114;BMP180;23926;53.222;6.354;2023-03-01T05:59:30;102783.00;;;-1.00
38114;BMP180;23926;53.222;6.354;2023-03-01T06:01:56;102768.00;;;-0.90
38114;BMP180;23926;53.222;6.354;2023-03-01T06:04:21;102779.00;;;-1.00
38114;BMP180;23926;53.222;6.354;2023-03-01T06:06:47;102782.00;;;-1.00
38114;BMP180;23926;53.222;6.354;2023-03-01T06:09:12;102801.00;;;-1.00
38114;BMP180;23926;53.222;6.354;2023-03-01T06:11:37;102778.00;;;-1.00
38114;BMP180;23926;53.222;6.354;2023-03-01T06:14:03;102778.00;;;-1.20
38114;BMP180;23926;53.222;6.354;2023-03-01T06:16:32;102771.00;;;-1.20
38114;BMP180;23926;53.222;6.354;2023-03-01T06:18:57;102777.00;;;-1.20
38114;BMP180;23926;53.222;6.354;2023-03-01T06:21:25;102793.00;;;-1.20
38114;BMP180;23926;53.222;6.354;2023-03-01T06:23:51;102815.00;;;-1.00
38114;BMP180;23926;53.222;6.354;2023-03-01T06:26:17;102805.00;;;-1.10
38114;BMP180;23926;53.222;6.354;2023-03-01T06:28:42;102793.00;;;-1.10
38114;BMP180;23926;53.222;6.354;2023-03-01T06:31:11;102800.00;;;-1.10
38114;BMP180;23926;53.222;6.354;2023-03-01T06:33:36;102815.00;;;-1.00
38114;BMP180;23926;53.222;6.354;2023-03-01T06:36:05;102784.00;;;-0.90
38114;BMP180;23926;53.222;6.354;2023-03-01T06:38:32;102819.00;;;-0.90
38114;BMP180;23926;53.222;6.354;2023-03-01T06:40:58;102834.00;;;-0.80
38114;BMP180;23926;53.222;6.354;2023-03-01T06:43:23;102825.00;;;-0.70
38114;BMP180;23926;53.222;6.354;2023-03-01T06:45:49;102818.00;;;-0.70
38114;BMP180;23926;53.222;6.354;2023-03-01T06:48:14;102815.00;;;-0.80
38114;BMP180;23926;53.222;6.354;2023-03-01T06:50:40;102811.00;;;-0.70
38114;BMP180;23926;53.222;6.354;2023-03-01T06:53:05;102821.00;;;-0.80
38114;BMP180;23926;53.222;6.354;2023-03-01T06:55:31;102819.00;;;-0.60
38114;BMP180;23926;53.222;6.354;2023-03-01T06:58:02;102834.00;;;-0.60
38114;BMP180;23926;53.222;6.354;2023-03-01T07:00:28;102813.00;;;-0.60
38114;BMP180;23926;53.222;6.354;2023-03-01T07:02:53;102838.00;;;-0.60
38114;BMP180;23926;53.222;6.354;2023-03-01T07:05:19;102826.00;;;-0.60
38114;BMP180;23926;53.222;6.354;2023-03-01T07:07:45;102815.00;;;-0.70
38114;BMP180;23926;53.222;6.354;2023-03-01T07:10:11;102826.00;;;-0.60
38114;BMP180;23926;53.222;6.354;2023-03-01T07:12:36;102831.00;;;-0.50
38114;BMP180;23926;53.222;6.354;2023-03-01T07:15:02;102822.00;;;-0.30
38114;BMP180;23926;53.222;6.354;2023-03-01T07:17:28;102821.00;;;-0.20
38114;BMP180;23926;53.222;6.354;2023-03-01T07:19:54;102817.00;;;0.00
38114;BMP180;23926;53.222;6.354;2023-03-01T07:22:19;102797.00;;;0.00
38114;BMP180;23926;53.222;6.354;2023-03-01T07:24:45;102851.00;;;0.20
38114;BMP180;23926;53.222;6.354;2023-03-01T07:27:10;102786.00;;;0.20
38114;BMP180;23926;53.222;6.354;2023-03-01T07:29:36;102803.00;;;0.30
38114;BMP180;23926;53.222;6.354;2023-03-01T07:32:02;102822.00;;;0.40
38114;BMP180;23926;53.222;6.354;2023-03-01T07:34:28;102800.00;;;0.50
38114;BMP180;23926;53.222;6.354;2023-03-01T07:36:54;102845.00;;;0.40
38114;BMP180;23926;53.222;6.354;2023-03-01T07:39:19;102814.00;;;0.60
38114;BMP180;23926;53.222;6.354;2023-03-01T07:41:45;102837.00;;;0.50
38114;BMP180;23926;53.222;6.354;2023-03-01T07:44:10;102840.00;;;0.60
38114;BMP180;23926;53.222;6.354;2023-03-01T07:46:36;102835.00;;;0.70
38114;BMP180;23926;53.222;6.354;2023-03-01T07:49:02;102848.00;;;0.80
38114;BMP180;23926;53.222;6.354;2023-03-01T07:51:27;102838.00;;;0.70
38114;BMP180;23926;53.222;6.354;2023-03-01T07:53:53;102828.00;;;0.80
38114;BMP180;23926;53.222;6.354;2023-03-01T07:56:18;102814.00;;;0.90
38114;BMP180;23926;53.222;6.354;2023-03-01T07:58:45;102825.00;;;0.90
38114;BMP180;23926;53.222;6.354;2023-03-01T08:01:13;102838.00;;;0.90
38114;BMP180;23926;53.222;6.354;2023-03-01T08:03:39;102846.00;;;0.90
38114;BMP180;23926;53.222;6.354;2023-03-01T08:06:07;102859.00;;;1.00
38114;BMP180;23926;53.222;6.354;2023-03-01T08:08:33;102851.00;;;1.10
38114;BMP180;23926;53.222;6.354;2023-03-01T08:11:00;102846.00;;;1.20
38114;BMP180;23926;53.222;6.354;2023-03-01T08:13:28;102874.00;;;1.30
38114;BMP180;23926;53.222;6.354;2023-03-01T08:15:53;102819.00;;;1.40
38114;BMP180;23926;53.222;6.354;2023-03-01T08:18:20;102840.00;;;1.50
38114;BMP180;23926;53.222;6.354;2023-03-01T08:20:47;102831.00;;;1.60
38114;BMP180;23926;53.222;6.354;2023-03-01T08:23:14;102853.00;;;1.90
38114;BMP180;23926;53.222;6.354;2023-03-01T08:25:41;102825.00;;;2.00
38114;BMP180;23926;53.222;6.354;2023-03-01T08:28:09;102849.00;;;2.30
38114;BMP180;23926;53.222;6.354;2023-03-01T08:30:36;102796.00;;;2.40
38114;BMP180;23926;53.222;6.354;2023-03-01T08:33:03;102838.00;;;2.60
38114;BMP180;23926;53.222;6.354;2023-03-01T08:35:30;102845.00;;;2.80
38114;BMP180;23926;53.222;6.354;2023-03-01T08:37:57;102863.00;;;2.90
38114;BMP180;23926;53.222;6.354;2023-03-01T08:40:27;102853.00;;;3.00
38114;BMP180;23926;53.222;6.354;2023-03-01T08:42:55;102832.00;;;3.20
38114;BMP180;23926;53.222;6.354;2023-03-01T08:45:24;102845.00;;;3.20
38114;BMP180;23926;53.222;6.354;2023-03-01T08:47:52;102794.00;;;3.30
38114;BMP180;23926;53.222;6.354;2023-03-01T08:50:18;102820.00;;;3.50
38114;BMP180;23926;53.222;6.354;2023-03-01T08:52:46;102851.00;;;3.40
38114;BMP180;23926;53.222;6.354;2023-03-01T08:55:14;102849.00;;;3.70
38114;BMP180;23926;53.222;6.354;2023-03-01T08:57:58;102853.00;;;3.80
38114;BMP180;23926;53.222;6.354;2023-03-01T09:01:12;102851.00;;;3.90
38114;BMP180;23926;53.222;6.354;2023-03-01T09:03:46;102848.00;;;4.10
38114;BMP180;23926;53.222;6.354;2023-03-01T09:06:41;102821.00;;;4.10
38114;BMP180;23926;53.222;6.354;2023-03-01T09:09:31;102803.00;;;4.30
38114;BMP180;23926;53.222;6.354;2023-03-01T09:12:27;102854.00;;;4.40
38114;BMP180;23926;53.222;6.354;2023-03-01T09:15:26;102815.00;;;4.60
38114;BMP180;23926;53.222;6.354;2023-03-01T09:18:36;102808.00;;;4.80
38114;BMP180;23926;53.222;6.354;2023-03-01T09:21:29;102806.00;;;4.90
38114;BMP180;23926;53.222;6.354;2023-03-01T09:24:46;102798.00;;;5.00
38114;BMP180;23926;53.222;6.354;2023-03-01T09:27:30;102838.00;;;5.20
38114;BMP180;23926;53.222;6.354;2023-03-01T09:30:37;102855.00;;;5.40
38114;BMP180;23926;53.222;6.354;2023-03-01T09:33:30;102827.00;;;5.60
38114;BMP180;23926;53.222;6.354;2023-03-01T09:36:29;102801.00;;;5.60
38114;BMP180;23926;53.222;6.354;2023-03-01T09:39:02;102844.00;;;5.70
38114;BMP180;23926;53.222;6.354;2023-03-01T09:42:03;102847.00;;;5.80
38114;BMP180;23926;53.222;6.354;2023-03-01T09:44:54;102805.00;;;5.90
38114;BMP180;23926;53.222;6.354;2023-03-01T09:47:33;102808.00;;;6.00
38114;BMP180;23926;53.222;6.354;2023-03-01T09:50:06;102800.00;;;6.10
38114;BMP180;23926;53.222;6.354;2023-03-01T09:55:50;102859.00;;;6.30
38114;BMP180;23926;53.222;6.354;2023-03-01T10:01:38;102868.00;;;6.50
38114;BMP180;23926;53.222;6.354;2023-03-01T10:04:35;102867.00;;;6.40
38114;BMP180;23926;53.222;6.354;2023-03-01T10:10:00;102845.00;;;6.60
38114;BMP180;23926;53.222;6.354;2023-03-01T10:12:37;102841.00;;;6.60
38114;BMP180;23926;53.222;6.354;2023-03-01T10:15:07;102867.00;;;6.70
38114;BMP180;23926;53.222;6.354;2023-03-01T10:17:48;102848.00;;;6.80
38114;BMP180;23926;53.222;6.354;2023-03-01T10:20:24;102825.00;;;6.80
38114;BMP180;23926;53.222;6.354;2023-03-01T10:22:51;102842.00;;;6.80
38114;BMP180;23926;53.222;6.354;2023-03-01T10:28:07;102809.00;;;6.80
38114;BMP180;23926;53.222;6.354;2023-03-01T10:30:38;102850.00;;;6.80
38114;BMP180;23926;53.222;6.354;2023-03-01T10:33:31;102836.00;;;7.10
38114;BMP180;23926;53.222;6.354;2023-03-01T10:35:59;102852.00;;;7.30
38114;BMP180;23926;53.222;6.354;2023-03-01T10:38:25;102842.00;;;7.30
38114;BMP180;23926;53.222;6.354;2023-03-01T10:40:59;102833.00;;;7.40
38114;BMP180;23926;53.222;6.354;2023-03-01T10:43:31;102837.00;;;7.40
38114;BMP180;23926;53.222;6.354;2023-03-01T10:45:57;102834.00;;;7.50
38114;BMP180;23926;53.222;6.354;2023-03-01T10:48:26;102833.00;;;7.60
38114;BMP180;23926;53.222;6.354;2023-03-01T10:53:41;102826.00;;;7.80
38114;BMP180;23926;53.222;6.354;2023-03-01T10:56:13;102809.00;;;7.80
38114;BMP180;23926;53.222;6.354;2023-03-01T10:59:02;102823.00;;;7.70
38114;BMP180;23926;53.222;6.354;2023-03-01T11:01:28;102822.00;;;7.80
38114;BMP180;23926;53.222;6.354;2023-03-01T11:04:11;102825.00;;;7.90
38114;BMP180;23926;53.222;6.354;2023-03-01T11:06:39;102817.00;;;7.90
38114;BMP180;23926;53.222;6.354;2023-03-01T11:09:15;102835.00;;;8.00
38114;BMP180;23926;53.222;6.354;2023-03-01T11:11:41;102823.00;;;8.00
38114;BMP180;23926;53.222;6.354;2023-03-01T11:14:16;102833.00;;;8.10
38114;BMP180;23926;53.222;6.354;2023-03-01T11:16:45;102834.00;;;8.10
38114;BMP180;23926;53.222;6.354;2023-03-01T11:21:47;102819.00;;;8.30
38114;BMP180;23926;53.222;6.354;2023-03-01T11:24:16;102837.00;;;8.50
38114;BMP180;23926;53.222;6.354;2023-03-01T11:26:47;102821.00;;;8.30
38114;BMP180;23926;53.222;6.354;2023-03-01T11:29:27;102824.00;;;8.40
38114;BMP180;23926;53.222;6.354;2023-03-01T11:31:57;102822.00;;;8.30
38114;BMP180;23926;53.222;6.354;2023-03-01T11:34:45;102834.00;;;8.40
38114;BMP180;23926;53.222;6.354;2023-03-01T11:37:59;102838.00;;;8.50
38114;BMP180;23926;53.222;6.354;2023-03-01T11:40:33;102835.00;;;8.40
38114;BMP180;23926;53.222;6.354;2023-03-01T11:43:05;102825.00;;;8.40
38114;BMP180;23926;53.222;6.354;2023-03-01T11:51:02;102810.00;;;8.70
38114;BMP180;23926;53.222;6.354;2023-03-01T11:59:09;102820.00;;;8.80
38114;BMP180;23926;53.222;6.354;2023-03-01T12:01:55;102798.00;;;8.90
38114;BMP180;23926;53.222;6.354;2023-03-01T12:07:24;102783.00;;;9.00
38114;BMP180;23926;53.222;6.354;2023-03-01T12:12:58;102791.00;;;8.90
38114;BMP180;23926;53.222;6.354;2023-03-01T12:30:16;102769.00;;;9.20
38114;BMP180;23926;53.222;6.354;2023-03-01T12:33:12;102771.00;;;9.40
38114;BMP180;23926;53.222;6.354;2023-03-01T12:39:00;102758.00;;;9.30
38114;BMP180;23926;53.222;6.354;2023-03-01T12:44:27;102741.00;;;9.30
38114;BMP180;23926;53.222;6.354;2023-03-01T12:49:54;102751.00;;;9.40
38114;BMP180;23926;53.222;6.354;2023-03-01T12:52:55;102752.00;;;9.30
38114;BMP180;23926;53.222;6.354;2023-03-01T12:55:33;102743.00;;;9.30
38114;BMP180;23926;53.222;6.354;2023-03-01T13:07:14;102735.00;;;9.60
38114;BMP180;23926;53.222;6.354;2023-03-01T13:10:22;102727.00;;;9.80
38114;BMP180;23926;53.222;6.354;2023-03-01T13:13:23;102726.00;;;9.70
38114;BMP180;23926;53.222;6.354;2023-03-01T13:15:56;102714.00;;;9.80
38114;BMP180;23926;53.222;6.354;2023-03-01T13:18:37;102732.00;;;9.90
38114;BMP180;23926;53.222;6.354;2023-03-01T13:21:32;102724.00;;;10.00
38114;BMP180;23926;53.222;6.354;2023-03-01T13:24:40;102682.00;;;9.90
38114;BMP180;23926;53.222;6.354;2023-03-01T13:27:24;102718.00;;;10.00
38114;BMP180;23926;53.222;6.354;2023-03-01T13:33:47;102721.00;;;10.00
38114;BMP180;23926;53.222;6.354;2023-03-01T13:36:45;102715.00;;;10.00
38114;BMP180;23926;53.222;6.354;2023-03-01T13:39:43;102672.00;;;10.10
38114;BMP180;23926;53.222;6.354;2023-03-01T13:42:49;102711.00;;;10.00
38114;BMP180;23926;53.222;6.354;2023-03-01T13:45:42;102686.00;;;10.00
38114;BMP180;23926;53.222;6.354;2023-03-01T13:48:30;102712.00;;;10.10
38114;BMP180;23926;53.222;6.354;2023-03-01T13:51:34;102674.00;;;10.10
38114;BMP180;23926;53.222;6.354;2023-03-01T13:54:31;102668.00;;;10.30
38114;BMP180;23926;53.222;6.354;2023-03-01T13:57:46;102688.00;;;10.20
38114;BMP180;23926;53.222;6.354;2023-03-01T14:00:35;102697.00;;;10.20
38114;BMP180;23926;53.222;6.354;2023-03-01T14:03:19;102663.00;;;10.30
38114;BMP180;23926;53.222;6.354;2023-03-01T14:06:33;102650.00;;;10.60
38114;BMP180;23926;53.222;6.354;2023-03-01T14:09:23;102677.00;;;10.70
38114;BMP180;23926;53.222;6.354;2023-03-01T14:12:49;102680.00;;;10.30
38114;BMP180;23926;53.222;6.354;2023-03-01T14:18:55;102695.00;;;10.20
38114;BMP180;23926;53.222;6.354;2023-03-01T14:20:52;102670.00;;;10.10
38114;BMP180;23926;53.222;6.354;2023-03-01T14:23:43;102663.00;;;10.20
38114;BMP180;23926;53.222;6.354;2023-03-01T14:26:34;102662.00;;;10.10
38114;BMP180;23926;53.222;6.354;2023-03-01T14:30:02;102670.00;;;10.10
38114;BMP180;23926;53.222;6.354;2023-03-01T14:33:27;102678.00;;;10.00
38114;BMP180;23926;53.222;6.354;2023-03-01T14:36:12;102629.00;;;10.00
38114;BMP180;23926;53.222;6.354;2023-03-01T14:39:24;102660.00;;;10.10
38114;BMP180;23926;53.222;6.354;2023-03-01T14:42:20;102605.00;;;10.00
38114;BMP180;23926;53.222;6.354;2023-03-01T14:44:55;102613.00;;;10.00
38114;BMP180;23926;53.222;6.354;2023-03-01T14:47:33;102643.00;;;10.10
38114;BMP180;23926;53.222;6.354;2023-03-01T14:50:03;102629.00;;;10.10
38114;BMP180;23926;53.222;6.354;2023-03-01T14:52:42;102630.00;;;9.90
38114;BMP180;23926;53.222;6.354;2023-03-01T14:55:21;102624.00;;;9.90
38114;BMP180;23926;53.222;6.354;2023-03-01T14:57:51;102642.00;;;9.90
38114;BMP180;23926;53.222;6.354;2023-03-01T15:00:30;102626.00;;;10.00
38114;BMP180;23926;53.222;6.354;2023-03-01T15:03:04;102623.00;;;9.80
38114;BMP180;23926;53.222;6.354;2023-03-01T15:05:35;102616.00;;;9.80
38114;BMP180;23926;53.222;6.354;2023-03-01T15:08:04;102615.00;;;10.00
38114;BMP180;23926;53.222;6.354;2023-03-01T15:10:33;102626.00;;;10.00
38114;BMP180;23926;53.222;6.354;2023-03-01T15:13:12;102616.00;;;10.10
38114;BMP180;23926;53.222;6.354;2023-03-01T15:15:43;102589.00;;;10.00
38114;BMP180;23926;53.222;6.354;2023-03-01T15:18:27;102591.00;;;10.10
38114;BMP180;23926;53.222;6.354;2023-03-01T15:21:05;102607.00;;;10.00
38114;BMP180;23926;53.222;6.354;2023-03-01T15:23:33;102592.00;;;10.00
38114;BMP180;23926;53.222;6.354;2023-03-01T15:26:06;102578.00;;;10.00
38114;BMP180;23926;53.222;6.354;2023-03-01T15:28:52;102613.00;;;10.00
38114;BMP180;23926;53.222;6.354;2023-03-01T15:31:31;102611.00;;;10.00
38114;BMP180;23926;53.222;6.354;2023-03-01T15:34:21;102585.00;;;9.90
38114;BMP180;23926;53.222;6.354;2023-03-01T15:36:56;102578.00;;;9.90
38114;BMP180;23926;53.222;6.354;2023-03-01T15:39:52;102591.00;;;10.00
38114;BMP180;23926;53.222;6.354;2023-03-01T15:47:57;102548.00;;;9.90
38114;BMP180;23926;53.222;6.354;2023-03-01T15:50:38;102580.00;;;9.80
38114;BMP180;23926;53.222;6.354;2023-03-01T15:53:13;102585.00;;;9.90
38114;BMP180;23926;53.222;6.354;2023-03-01T15:55:41;102579.00;;;9.90
38114;BMP180;23926;53.222;6.354;2023-03-01T15:58:20;102563.00;;;9.80
38114;BMP180;23926;53.222;6.354;2023-03-01T16:00:49;102579.00;;;9.80
38114;BMP180;23926;53.222;6.354;2023-03-01T16:03:26;102560.00;;;9.70
38114;BMP180;23926;53.222;6.354;2023-03-01T16:06:08;102560.00;;;9.70
38114;BMP180;23926;53.222;6.354;2023-03-01T16:08:42;102561.00;;;9.70